Time;durP1;ratioP1;P1;durP2;ratioP2;P2;SDS_P1;SDS_P2;PMS_P1;PMS_P2;Temp;Humidity;BMP_temperature;BMP_pressure;BME280_temperature;BME280_humidity;BME280_pressure;Samples;Min_cycle;Max_cycle;Signal;HPM_P1;HPM_P2
2023/07/28 00:05:17;;;;;;;9.60;8.60;;;17.00;99.90;;;;;;2609665;54;20134;-68
2023/07/28 00:11:10;;;;;;;9.53;8.23;;;16.90;99.90;;;;;;2609063;54;20155;-68
2023/07/28 00:16:58;;;;;;;14.43;9.40;;;17.00;99.90;;;;;;2610217;54;20399;-68
2023/07/28 00:22:45;;;;;;;9.70;8.23;;;17.00;99.90;;;;;;2609394;54;20398;-69
2023/07/28 00:28:33;;;;;;;12.33;9.00;;;17.00;99.90;;;;;;2610501;54;20172;-69
2023/07/28 00:34:21;;;;;;;11.10;9.00;;;17.00;99.90;;;;;;2608744;54;20159;-68
2023/07/28 00:40:09;;;;;;;14.33;9.90;;;17.00;99.90;;;;;;2609478;54;20170;-68
2023/07/28 00:43:24;;;;;;;12.13;9.70;;;17.00;99.90;;;;;;2610454;54;21009;-68
2023/07/28 00:45:50;;;;;;;9.63;7.87;;;17.00;99.90;;;;;;2609985;54;20428;-68
2023/07/28 00:51:38;;;;;;;9.67;7.53;;;16.90;99.90;;;;;;2611783;54;20162;-68
2023/07/28 00:57:26;;;;;;;10.80;7.70;;;16.90;99.90;;;;;;2612833;54;20405;-67
2023/07/28 01:03:17;;;;;;;8.87;5.20;;;16.90;99.90;;;;;;2613405;54;20138;-69
2023/07/28 01:15:53;;;;;;;5.43;4.27;;;16.90;99.90;;;;;;2603995;54;20407;-68
2023/07/28 01:28:17;;;;;;;4.93;4.43;;;16.80;99.90;;;;;;2607050;54;20395;-77
2023/07/28 01:30:44;;;;;;;7.00;4.80;;;16.80;99.90;;;;;;2611231;54;20406;-76
2023/07/28 01:36:32;;;;;;;6.03;4.07;;;16.80;99.90;;;;;;2608889;54;20425;-76
2023/07/28 01:42:20;;;;;;;6.10;4.57;;;16.80;99.90;;;;;;2610742;46;20267;-78
2023/07/28 01:48:10;;;;;;;4.07;3.23;;;16.90;99.90;;;;;;2612577;54;20165;-76
2023/07/28 01:53:58;;;;;;;3.73;3.17;;;16.90;99.90;;;;;;2613229;54;20411;-77
2023/07/28 01:59:45;;;;;;;3.30;2.70;;;16.90;99.90;;;;;;2611020;54;20171;-76
2023/07/28 02:05:33;;;;;;;4.13;3.30;;;16.90;99.90;;;;;;2610627;54;20150;-78
2023/07/28 02:11:21;;;;;;;4.93;3.87;;;16.90;99.90;;;;;;2610256;54;20151;-75
2023/07/28 02:17:09;;;;;;;6.40;4.40;;;17.00;99.90;;;;;;2611289;39;20567;-76
2023/07/28 02:22:57;;;;;;;3.80;3.10;;;17.00;99.90;;;;;;2610862;54;20233;-77
2023/07/28 02:28:45;;;;;;;6.23;3.13;;;17.10;99.90;;;;;;2612714;54;20139;-78
2023/07/28 02:34:32;;;;;;;5.13;3.40;;;17.10;99.90;;;;;;2613088;54;20128;-75
2023/07/28 02:40:20;;;;;;;4.33;3.00;;;17.10;99.90;;;;;;2613138;54;20121;-76
2023/07/28 02:46:08;;;;;;;5.10;3.47;;;17.10;99.90;;;;;;2614340;54;20123;-76
2023/07/28 02:51:56;;;;;;;4.00;2.40;;;17.10;99.90;;;;;;2612701;54;20159;-75
2023/07/28 02:57:43;;;;;;;4.83;3.20;;;17.10;99.90;;;;;;2613800;54;20126;-75
2023/07/28 03:03:31;;;;;;;5.07;3.50;;;17.10;99.90;;;;;;2615259;54;20138;-75
2023/07/28 03:09:19;;;;;;;7.17;4.60;;;17.00;99.90;;;;;;2614349;54;20231;-75
2023/07/28 03:15:07;;;;;;;12.87;4.83;;;17.00;99.90;;;;;;2611892;39;21200;-76
2023/07/28 03:24:17;;;;;;;7.97;4.70;;;17.00;99.90;;;;;;2610493;54;20432;-77
2023/07/28 03:30:06;;;;;;;6.80;5.90;;;17.00;99.90;;;;;;2610539;54;20134;-76
2023/07/28 03:35:54;;;;;;;10.40;5.80;;;17.00;99.90;;;;;;2610615;54;20431;-77
2023/07/28 03:41:41;;;;;;;6.43;5.27;;;17.00;99.90;;;;;;2610007;54;20239;-77
2023/07/28 03:47:29;;;;;;;7.67;5.80;;;17.00;99.90;;;;;;2613320;54;20130;-74
2023/07/28 03:53:17;;;;;;;7.30;5.33;;;17.00;99.90;;;;;;2614864;54;20130;-73
2023/07/28 03:59:05;;;;;;;5.30;4.17;;;17.00;99.90;;;;;;2615138;54;20202;-73
2023/07/28 04:04:56;;;;;;;5.33;4.00;;;17.10;99.90;;;;;;2613525;54;20135;-72
2023/07/28 04:10:44;;;;;;;6.33;4.13;;;17.10;99.90;;;;;;2613011;54;20921;-74
2023/07/28 04:16:32;;;;;;;5.70;3.60;;;17.20;99.90;;;;;;2615333;54;20245;-73
2023/07/28 04:19:36;;;;;;;7.57;4.93;;;17.20;99.90;;;;;;2614023;54;21079;-73
2023/07/28 04:22:02;;;;;;;5.73;4.43;;;17.20;99.90;;;;;;2611526;47;20162;-75
2023/07/28 04:27:50;;;;;;;6.90;4.57;;;17.10;99.90;;;;;;2609947;54;20131;-73
2023/07/28 04:33:41;;;;;;;6.30;4.23;;;17.20;99.90;;;;;;2609570;54;20133;-73
2023/07/28 04:39:29;;;;;;;6.67;4.90;;;17.30;99.90;;;;;;2611947;54;20383;-73
2023/07/28 04:45:16;;;;;;;5.87;4.57;;;17.30;99.90;;;;;;2611776;54;20266;-74
2023/07/28 04:51:04;;;;;;;5.53;4.07;;;17.50;99.90;;;;;;2614379;54;20262;-72
2023/07/28 04:56:53;;;;;;;9.50;4.50;;;17.50;99.90;;;;;;2611878;54;20131;-77
2023/07/28 05:02:40;;;;;;;9.83;4.00;;;17.50;99.90;;;;;;2614306;54;20532;-76
2023/07/28 05:08:28;;;;;;;5.83;3.33;;;17.60;99.90;;;;;;2614860;54;20163;-75
2023/07/28 05:14:16;;;;;;;4.17;3.17;;;17.70;99.90;;;;;;2613434;54;20129;-74
2023/07/28 05:24:13;;;;;;;4.53;2.50;;;18.00;99.90;;;;;;2612141;54;20416;-75
2023/07/28 05:30:00;;;;;;;3.67;2.47;;;18.00;99.90;;;;;;2613187;54;20355;-75
2023/07/28 05:35:48;;;;;;;3.03;2.27;;;17.90;99.90;;;;;;2612410;54;20137;-76
2023/07/28 05:41:39;;;;;;;7.17;3.70;;;18.10;99.90;;;;;;2613725;54;20553;-79
2023/07/28 05:47:27;;;;;;;6.00;4.90;;;18.10;99.90;;;;;;2611848;54;20496;-76
2023/07/28 05:53:14;;;;;;;7.10;5.10;;;18.20;99.90;;;;;;2614932;54;20155;-76
2023/07/28 05:59:02;;;;;;;6.10;4.90;;;18.00;99.90;;;;;;2613730;54;20143;-74
2023/07/28 06:04:52;;;;;;;7.70;5.53;;;18.00;99.90;;;;;;2617195;31;20640;-73
2023/07/28 06:10:39;;;;;;;8.50;6.47;;;17.90;99.90;;;;;;2617301;54;20429;-72
2023/07/28 06:16:27;;;;;;;9.27;6.27;;;18.00;99.90;;;;;;2617013;54;20123;-73
2023/07/28 06:22:23;;;;;;;9.87;6.50;;;18.10;99.90;;;;;;2615727;54;20139;-71
2023/07/28 06:28:11;;;;;;;11.50;8.63;;;18.10;99.90;;;;;;2613581;54;20158;-73
2023/07/28 06:33:58;;;;;;;8.03;5.83;;;18.20;99.90;;;;;;2612054;54;20434;-71
2023/07/28 06:39:46;;;;;;;10.70;8.30;;;18.40;99.90;;;;;;2612494;54;20400;-75
2023/07/28 06:45:33;;;;;;;9.17;6.83;;;18.60;99.90;;;;;;2611893;54;20123;-71
2023/07/28 06:51:20;;;;;;;7.93;6.47;;;19.00;99.90;;;;;;2611865;54;20422;-73
2023/07/28 06:57:08;;;;;;;8.30;5.80;;;18.90;63.90;;;;;;2612405;54;20126;-72
2023/07/28 07:02:55;;;;;;;6.30;5.57;;;19.30;24.60;;;;;;2614618;54;20131;-72
2023/07/28 07:08:43;;;;;;;6.40;5.23;;;19.00;60.90;;;;;;2613362;54;20134;-71
2023/07/28 07:14:31;;;;;;;8.10;6.77;;;19.00;66.50;;;;;;2614550;54;20945;-73
2023/07/28 07:24:29;;;;;;;7.10;6.40;;;19.20;40.50;;;;;;2612179;54;20422;-75
2023/07/28 07:30:16;;;;;;;7.27;6.17;;;19.40;14.90;;;;;;2612441;54;21072;-75
2023/07/28 07:36:04;;;;;;;9.40;8.07;;;19.80;1.00;;;;;;2612194;54;20511;-75
2023/07/28 07:41:51;;;;;;;9.07;7.90;;;19.80;1.00;;;;;;2611260;54;20145;-75
2023/07/28 07:47:41;;;;;;;10.30;9.17;;;19.70;1.00;;;;;;2612008;39;20983;-75
2023/07/28 07:53:29;;;;;;;12.10;10.33;;;19.80;1.00;;;;;;2610341;54;20397;-75
2023/07/28 07:59:16;;;;;;;10.33;9.23;;;19.90;1.00;;;;;;2612265;54;20130;-74
2023/07/28 08:05:03;;;;;;;9.07;7.90;;;20.40;1.00;;;;;;2613345;54;20163;-74
2023/07/28 08:10:51;;;;;;;9.07;8.20;;;20.10;1.00;;;;;;2612455;54;20222;-74
2023/07/28 08:16:38;;;;;;;11.10;10.00;;;20.50;1.00;;;;;;2614777;54;20126;-74
2023/07/28 08:19:40;;;;;;;13.83;12.43;;;20.60;1.00;;;;;;2610343;49;20411;-75
2023/07/28 08:22:06;;;;;;;13.10;11.70;;;20.60;1.00;;;;;;2608724;47;20544;-74
2023/07/28 08:27:54;;;;;;;14.50;12.67;;;20.00;1.00;;;;;;2611891;54;20387;-74
2023/07/28 08:33:41;;;;;;;14.70;13.20;;;20.00;1.00;;;;;;2613115;46;20153;-74
2023/07/28 08:39:29;;;;;;;12.73;10.17;;;20.20;1.00;;;;;;2612285;54;20641;-73
2023/07/28 08:45:18;;;;;;;10.87;9.80;;;20.20;1.00;;;;;;2611755;54;20131;-75
2023/07/28 08:51:08;;;;;;;10.27;9.37;;;20.20;1.00;;;;;;2614154;54;20414;-71
2023/07/28 08:56:58;;;;;;;11.43;10.33;;;20.30;1.00;;;;;;2610170;54;20416;-74
2023/07/28 09:02:49;;;;;;;10.93;9.70;;;20.80;1.00;;;;;;2610823;39;20498;-73
2023/07/28 09:08:57;;;;;;;11.00;9.90;;;20.50;1.00;;;;;;2613372;54;20415;-74
2023/07/28 09:14:45;;;;;;;7.90;7.00;;;20.50;1.00;;;;;;2611560;54;20368;-74
2023/07/28 09:24:10;;;;;;;2.80;2.00;;;20.80;1.00;;;;;;2609323;54;20523;-74
2023/07/28 09:29:58;;;;;;;2.03;1.87;;;22.30;1.00;;;;;;2609326;54;20452;-75
2023/07/28 09:35:49;;;;;;;3.30;2.47;;;21.80;1.00;;;;;;2608661;54;20758;-73
2023/07/28 09:41:38;;;;;;;7.30;5.77;;;21.60;1.00;;;;;;2610586;54;20379;-74
2023/07/28 09:47:30;;;;;;;4.80;4.37;;;21.60;1.00;;;;;;2613679;54;20394;-75
2023/07/28 09:53:19;;;;;;;4.80;2.80;;;21.60;1.00;;;;;;2613982;54;20405;-72
2023/07/28 09:59:12;;;;;;;6.20;4.33;;;21.60;1.00;;;;;;2612703;54;20533;-73
2023/07/28 10:05:01;;;;;;;8.00;7.20;;;21.30;1.00;;;;;;2615144;54;20954;-70
2023/07/28 10:10:49;;;;;;;8.17;7.47;;;21.40;1.00;;;;;;2614805;54;20424;-74
2023/07/28 10:16:40;;;;;;;9.07;8.27;;;21.70;1.00;;;;;;2613968;54;20423;-74
2023/07/28 10:19:40;;;;;;;8.30;7.50;;;21.40;1.00;;;;;;2613812;47;20450;-71
2023/07/28 10:22:11;;;;;;;9.57;8.67;;;21.60;1.00;;;;;;2614357;39;20817;-73
2023/07/28 10:27:59;;;;;;;11.43;10.37;;;21.80;1.00;;;;;;2615191;54;20379;-73
2023/07/28 10:33:47;;;;;;;9.17;8.37;;;22.00;1.00;;;;;;2615150;54;20640;-72
2023/07/28 10:39:35;;;;;;;7.63;6.93;;;22.40;1.00;;;;;;2615212;54;20395;-70
2023/07/28 10:45:25;;;;;;;9.83;7.37;;;23.00;1.00;;;;;;2614560;54;20134;-72
2023/07/28 10:57:30;;;;;;;8.50;6.80;;;22.50;1.00;;;;;;2615216;54;20401;-72
2023/07/28 11:03:18;;;;;;;5.70;5.20;;;22.20;1.00;;;;;;2615796;54;20155;-71
2023/07/28 11:09:07;;;;;;;5.30;4.90;;;22.40;1.00;;;;;;2615020;54;20423;-72
2023/07/28 11:14:54;;;;;;;9.10;6.00;;;22.40;1.00;;;;;;2614732;54;20494;-75
2023/07/28 11:21:37;;;;;;;6.33;5.73;;;23.10;1.00;;;;;;2614264;54;20174;-78
2023/07/28 11:24:11;;;;;;;7.30;6.70;;;23.00;1.00;;;;;;2631732;36;20854;-77
2023/07/28 11:29:58;;;;;;;7.23;6.73;;;23.00;1.00;;;;;;2614024;54;20379;-78
2023/07/28 11:35:46;;;;;;;7.63;7.00;;;23.10;1.00;;;;;;2614764;54;20160;-78
2023/07/28 11:41:35;;;;;;;8.60;7.90;;;22.40;1.00;;;;;;2614223;54;20154;-80
2023/07/28 11:47:22;;;;;;;9.53;8.80;;;22.90;1.00;;;;;;2614480;54;20390;-79
2023/07/28 11:53:11;;;;;;;8.33;7.53;;;23.40;1.00;;;;;;2614764;39;20551;-79
2023/07/28 11:58:59;;;;;;;7.67;7.07;;;22.70;1.00;;;;;;2611513;54;20416;-77
2023/07/28 12:04:49;;;;;;;5.93;5.43;;;22.10;1.00;;;;;;2616770;54;20266;-71
2023/07/28 12:10:37;;;;;;;8.43;5.27;;;20.90;1.00;;;;;;2610789;54;20411;-74
2023/07/28 12:23:05;;;;;;;4.70;3.40;;;20.50;99.90;;;;;;2614118;54;20495;-73
2023/07/28 12:28:52;;;;;;;3.20;2.47;;;22.30;1.00;;;;;;2613172;54;20453;-73
2023/07/28 12:34:40;;;;;;;2.30;1.93;;;22.60;1.00;;;;;;2611088;54;20126;-72
2023/07/28 12:40:29;;;;;;;3.53;1.80;;;23.50;1.00;;;;;;2609006;39;20254;-72
2023/07/28 12:46:17;;;;;;;2.53;2.00;;;24.10;1.00;;;;;;2607297;54;20363;-74
2023/07/28 12:52:09;;;;;;;2.73;2.57;;;24.20;1.00;;;;;;2607946;54;20174;-73
2023/07/28 12:57:58;;;;;;;3.43;3.13;;;23.80;1.00;;;;;;2609321;39;20839;-72
2023/07/28 13:03:46;;;;;;;3.47;3.23;;;23.60;1.00;;;;;;2609251;54;20388;-73
2023/07/28 13:09:33;;;;;;;2.57;2.37;;;24.40;1.00;;;;;;2609212;54;20154;-75
2023/07/28 13:15:21;;;;;;;3.43;2.90;;;24.40;1.00;;;;;;2610872;54;20134;-73
2023/07/28 13:25:27;;;;;;;3.10;2.90;;;24.60;1.00;;;;;;2614382;54;20442;-72
2023/07/28 13:31:18;;;;;;;4.30;3.30;;;25.50;1.00;;;;;;2611191;54;20403;-71
2023/07/28 13:37:06;;;;;;;3.40;3.20;;;26.30;1.00;;;;;;2616170;54;20383;-71
2023/07/28 13:42:54;;;;;;;3.70;3.50;;;25.80;1.00;;;;;;2617740;54;20174;-71
2023/07/28 13:48:42;;;;;;;5.10;4.80;;;25.40;1.00;;;;;;2616617;54;20130;-72
2023/07/28 13:54:29;;;;;;;3.83;3.63;;;26.50;1.00;;;;;;2616301;54;20134;-71
2023/07/28 14:00:17;;;;;;;3.90;3.70;;;24.50;1.00;;;;;;2615926;54;20183;-71
2023/07/28 14:06:05;;;;;;;4.10;3.90;;;24.40;1.00;;;;;;2615955;46;20149;-71
2023/07/28 14:11:53;;;;;;;4.10;3.80;;;23.80;1.00;;;;;;2616668;46;20170;-71
2023/07/28 14:17:42;;;;;;;4.07;3.67;;;24.20;1.00;;;;;;2617734;54;20623;-70
2023/07/28 14:20:57;;;;;;;3.90;3.50;;;23.80;1.00;;;;;;2615948;54;20427;-71
2023/07/28 14:23:27;;;;;;;3.47;3.27;;;24.10;1.00;;;;;;2616385;54;20452;-72
2023/07/28 14:29:15;;;;;;;3.40;3.20;;;24.70;1.00;;;;;;2616488;54;20411;-71
2023/07/28 14:35:03;;;;;;;2.80;2.70;;;24.70;1.00;;;;;;2616560;54;20139;-71
2023/07/28 14:40:53;;;;;;;3.10;2.90;;;23.80;1.00;;;;;;2616179;54;20388;-72
2023/07/28 14:46:41;;;;;;;5.50;3.30;;;25.40;1.00;;;;;;2616644;54;20461;-72
2023/07/28 14:52:28;;;;;;;3.57;3.37;;;25.20;1.00;;;;;;2616777;54;20720;-71
2023/07/28 14:58:16;;;;;;;2.60;2.40;;;24.90;1.00;;;;;;2616094;54;20151;-71
2023/07/28 15:04:04;;;;;;;3.47;3.17;;;24.20;1.00;;;;;;2615764;54;20123;-70
2023/07/28 15:09:52;;;;;;;2.53;2.43;;;23.90;1.00;;;;;;2615247;54;20223;-70
2023/07/28 15:15:40;;;;;;;2.20;2.00;;;23.60;1.00;;;;;;2615957;54;20130;-70
2023/07/28 15:25:30;;;;;;;1.70;1.60;;;23.20;1.00;;;;;;2615049;54;20949;-71
2023/07/28 15:31:18;;;;;;;1.80;1.70;;;23.00;1.00;;;;;;2614560;54;20395;-71
2023/07/28 15:37:06;;;;;;;2.33;2.10;;;22.60;1.00;;;;;;2615924;54;20130;-70
2023/07/28 15:42:53;;;;;;;2.13;1.93;;;22.90;1.00;;;;;;2615617;54;20130;-70
2023/07/28 15:48:41;;;;;;;2.20;2.00;;;22.70;1.00;;;;;;2615364;54;20223;-72
2023/07/28 15:54:29;;;;;;;2.37;1.90;;;22.30;1.00;;;;;;2615699;54;20395;-75
2023/07/28 16:00:17;;;;;;;2.50;1.90;;;22.40;1.00;;;;;;2611087;54;20147;-71
2023/07/28 16:06:05;;;;;;;2.10;1.90;;;22.20;1.00;;;;;;2610227;54;20628;-72
2023/07/28 16:11:52;;;;;;;1.80;1.70;;;22.40;1.00;;;;;;2614809;54;20676;-72
2023/07/28 16:17:40;;;;;;;2.67;2.10;;;22.30;1.00;;;;;;2615297;54;20232;-71
2023/07/28 16:21:01;;;;;;;3.10;2.30;;;22.30;1.00;;;;;;2614254;31;21006;-71
2023/07/28 16:23:26;;;;;;;2.00;1.77;;;22.20;1.00;;;;;;2614778;52;20166;-72
2023/07/28 16:29:14;;;;;;;2.53;2.33;;;22.40;1.00;;;;;;2614838;54;20766;-71
2023/07/28 16:35:02;;;;;;;2.23;2.10;;;22.60;1.00;;;;;;2615559;54;20139;-74
2023/07/28 16:40:50;;;;;;;2.57;2.20;;;22.10;1.00;;;;;;2612423;54;20378;-73
2023/07/28 16:46:37;;;;;;;2.03;1.83;;;21.90;1.00;;;;;;2613323;39;20516;-71
2023/07/28 16:52:26;;;;;;;2.20;1.90;;;21.90;1.00;;;;;;2612601;54;20123;-71
2023/07/28 16:58:16;;;;;;;2.03;1.83;;;21.90;1.00;;;;;;2612368;54;20431;-71
2023/07/28 17:04:03;;;;;;;2.63;2.10;;;22.00;1.00;;;;;;2615090;54;20415;-73
2023/07/28 17:09:51;;;;;;;2.87;2.67;;;23.30;1.00;;;;;;2614412;54;20235;-79
2023/07/28 17:15:38;;;;;;;3.60;3.40;;;23.30;1.00;;;;;;2615352;54;20122;-79
2023/07/28 17:25:29;;;;;;;7.00;3.90;;;23.40;1.00;;;;;;2614331;54;20367;-80
2023/07/28 17:31:16;;;;;;;3.80;3.50;;;23.10;1.00;;;;;;2614773;54;20391;-79
2023/07/28 17:37:04;;;;;;;4.13;3.57;;;22.90;1.00;;;;;;2615081;54;20136;-74
2023/07/28 17:42:52;;;;;;;3.40;3.20;;;22.80;1.00;;;;;;2614678;54;20476;-77
2023/07/28 17:48:40;;;;;;;3.53;2.83;;;22.60;1.00;;;;;;2618450;39;20524;-71
2023/07/28 17:54:28;;;;;;;3.43;3.20;;;22.30;1.00;;;;;;2617499;54;20118;-71
2023/07/28 18:00:16;;;;;;;3.57;3.27;;;22.10;1.00;;;;;;2617860;54;20648;-74
2023/07/28 18:06:03;;;;;;;5.53;3.10;;;22.00;1.00;;;;;;2617696;54;20118;-71
2023/07/28 18:11:51;;;;;;;3.13;2.90;;;21.70;1.00;;;;;;2617709;46;20256;-72
2023/07/28 18:17:39;;;;;;;3.53;2.40;;;21.60;1.00;;;;;;2612432;54;20183;-78
2023/07/28 18:23:44;;;;;;;3.23;2.30;;;21.40;1.00;;;;;;2612324;46;20130;-83
2023/07/28 18:29:31;;;;;;;2.77;2.57;;;21.20;1.00;;;;;;2613146;39;20554;-77
2023/07/28 18:35:19;;;;;;;4.00;3.57;;;21.10;1.00;;;;;;2612982;54;20168;-77
2023/07/28 18:41:05;;;;;;;2.90;2.53;;;21.00;1.00;;;;;;2611282;54;20150;-74
2023/07/28 18:46:52;;;;;;;3.03;2.73;;;20.80;1.00;;;;;;2613349;39;20579;-74
2023/07/28 18:52:40;;;;;;;3.07;2.40;;;20.70;1.00;;;;;;2612854;54;20149;-74
2023/07/28 18:58:28;;;;;;;3.93;3.13;;;20.60;1.00;;;;;;2614221;54;20408;-79
2023/07/28 19:04:16;;;;;;;3.33;2.60;;;20.50;1.00;;;;;;2614926;54;20972;-79
2023/07/28 19:10:04;;;;;;;3.33;2.17;;;20.30;1.00;;;;;;2614937;54;20138;-80
2023/07/28 19:15:51;;;;;;;3.80;2.47;;;20.10;1.00;;;;;;2614433;54;20416;-79
2023/07/28 19:31:58;;;;;;;5.77;3.30;;;19.70;1.00;;;;;;2612721;54;21076;-75
2023/07/28 19:37:46;;;;;;;3.30;3.00;;;19.50;1.00;;;;;;2613482;54;20131;-74
2023/07/28 19:43:33;;;;;;;5.07;3.47;;;19.40;1.00;;;;;;2613375;54;20137;-76
2023/07/28 19:49:20;;;;;;;9.63;4.20;;;19.30;8.00;;;;;;2613015;54;20226;-75
2023/07/28 19:55:08;;;;;;;7.10;3.93;;;19.20;29.30;;;;;;2614180;39;21091;-76
2023/07/28 20:00:55;;;;;;;5.80;4.17;;;19.10;42.30;;;;;;2611267;54;20415;-75
2023/07/28 20:06:43;;;;;;;4.90;3.90;;;19.20;43.00;;;;;;2612818;54;20259;-76
2023/07/28 20:12:32;;;;;;;4.97;4.37;;;19.00;99.90;;;;;;2614320;54;20147;-76
2023/07/28 20:18:23;;;;;;;8.10;5.50;;;18.90;99.90;;;;;;2613678;54;20411;-75
2023/07/28 20:21:06;;;;;;;6.47;4.50;;;19.00;99.90;;;;;;2613340;54;20471;-77
2023/07/28 20:23:31;;;;;;;7.90;4.33;;;19.10;95.70;;;;;;2614284;54;20500;-76
2023/07/28 20:29:19;;;;;;;7.10;3.77;;;19.00;90.40;;;;;;2613624;54;20735;-75
2023/07/28 20:35:07;;;;;;;7.00;4.30;;;19.00;91.90;;;;;;2614872;54;20138;-72
2023/07/28 20:40:56;;;;;;;5.40;3.43;;;19.10;60.10;;;;;;2615961;54;20523;-73
2023/07/28 20:46:44;;;;;;;4.10;3.50;;;19.30;14.80;;;;;;2617398;54;20412;-72
2023/07/28 20:52:32;;;;;;;4.17;3.43;;;19.30;1.10;;;;;;2617184;54;20483;-71
2023/07/28 20:58:19;;;;;;;3.80;3.20;;;19.40;1.00;;;;;;2617067;54;20118;-71
2023/07/28 21:04:07;;;;;;;4.87;3.00;;;19.40;2.30;;;;;;2617475;46;20141;-72
2023/07/28 21:09:58;;;;;;;8.27;3.27;;;19.50;1.00;;;;;;2616992;54;20122;-73
2023/07/28 21:15:45;;;;;;;7.13;3.60;;;19.60;1.00;;;;;;2615047;46;20456;-78
2023/07/28 21:25:35;;;;;;;7.83;3.47;;;19.40;38.60;;;;;;2615476;54;20485;-80
2023/07/28 21:31:22;;;;;;;5.63;3.47;;;19.40;65.60;;;;;;2614537;54;20378;-79
2023/07/28 21:37:10;;;;;;;2.70;2.50;;;19.50;32.30;;;;;;2614695;54;20247;-80
2023/07/28 21:42:58;;;;;;;6.20;3.50;;;19.50;23.00;;;;;;2614347;54;20114;-77
2023/07/28 21:48:45;;;;;;;5.00;3.00;;;19.30;99.90;;;;;;2614432;46;20158;-78
2023/07/28 21:54:33;;;;;;;6.00;3.57;;;19.40;99.90;;;;;;2610783;54;20169;-73
2023/07/28 22:00:22;;;;;;;4.30;3.90;;;19.30;99.90;;;;;;2613488;54;20179;-77
2023/07/28 22:06:10;;;;;;;4.50;3.90;;;19.30;99.90;;;;;;2614941;54;20366;-75
2023/07/28 22:11:58;;;;;;;4.00;3.10;;;19.20;99.90;;;;;;2613944;54;20218;-81
2023/07/28 22:17:46;;;;;;;3.57;3.03;;;19.20;99.90;;;;;;2615844;31;20626;-78
2023/07/28 22:27:08;;;;;;;4.30;3.30;;;19.20;99.90;;;;;;2611027;54;20534;-81
2023/07/28 22:32:54;;;;;;;5.03;3.67;;;19.30;99.90;;;;;;2613253;54;20151;-80
2023/07/28 22:38:42;;;;;;;4.40;4.00;;;19.20;99.90;;;;;;2613317;54;20133;-81
2023/07/28 22:44:29;;;;;;;3.80;3.40;;;19.10;99.90;;;;;;2611241;54;20391;-79
2023/07/28 22:50:16;;;;;;;4.93;3.70;;;19.20;99.90;;;;;;2611979;39;20436;-77
2023/07/28 22:56:04;;;;;;;5.43;4.07;;;19.20;99.90;;;;;;2612206;54;20139;-73
2023/07/28 23:01:51;;;;;;;4.27;3.90;;;19.20;99.90;;;;;;2613552;46;20150;-72
2023/07/28 23:07:39;;;;;;;5.10;4.00;;;19.10;99.90;;;;;;2613203;54;20119;-75
2023/07/28 23:13:26;;;;;;;8.47;3.63;;;19.00;99.90;;;;;;2613033;54;20133;-72
2023/07/28 23:19:14;;;;;;;5.07;3.37;;;18.90;99.90;;;;;;2613232;54;20114;-72
2023/07/28 23:25:20;;;;;;;4.53;3.73;;;18.70;99.90;;;;;;2611685;54;20163;-72
2023/07/28 23:37:49;;;;;;;6.30;5.13;;;18.50;99.90;;;;;;2613745;54;20392;-71
2023/07/28 23:43:37;;;;;;;5.33;4.03;;;18.30;99.90;;;;;;2612126;39;20765;-72
2023/07/28 23:49:24;;;;;;;5.60;3.67;;;18.30;99.90;;;;;;2611225;54;20984;-72
2023/07/28 23:55:11;;;;;;;5.60;4.07;;;18.00;99.90;;;;;;2611435;54;20162;-72
